หน้าหลัก
METAR-TAF:

METAR-TAF

ท่าอากาศยาน :

Ålesund, นอร์เวย์

ละติจูด: 62-34N, ลองจิจูด: 006-07E, ความสูง: 2 ม.

การสังเกตสภาพอากาศปัจจุบัน

รายงานได้ทำขึ้นเมื่อ 23 นาทีที่แล้ว ณ เวลา 23:20 UTC
ลม 12 นอตจากตะวันออกเฉียงเหนือ
อุณหภูมิ 13°C
ความชื้น 94%
ความกดอากาศ 1017 hPa
ทัศนวิสัย 10 กม. หรือมากกว่า

METAR: ENAL 122320Z AUTO 04012KT 9999 BKN006/// OVC007/// 13/12 Q1017

เวลา: 01:43 (23:43 UTC)

การพยากรณ์

รายงานได้ทำขึ้นเมื่อ 9 ชั่วโมงและ 43 นาทีที่แล้ว ณ เวลา 14:00 UTC
การพยากรณ์มีผลตั้งแต่วันที่ 12 ณ เวลา 15 UTC จนถึงวันที่ 12 ณ เวลา 22 UTC
ลม 12 นอตจากตะวันออกเฉียงเหนือ
ทัศนวิสัย 10 กม. หรือมากกว่า
มีเมฆน้อยที่ความสูง 1500 ฟุต
ความน่าจะเป็น 30%
ตั้งแต่วันที่ 12 ณ เวลา 20 UTC จนถึงวันที่ 12 ณ เวลา 22 UTC
มีเมฆเป็นส่วนมากเว้นเป็นระยะที่ความสูง 800 ฟุต

TAF: ENAL 121400Z 1215/1222 05012KT 9999 FEW015 PROB30 1220/1222 BKN008

สังเกตการณ์สภาพอากาศและพยากรณ์อากาศของสนามบินมากกว่า 4000 แห่ง (รายงาน METAR และ TAF).

สถานีที่ดูได้จะแสดงไว้ด้วยจุดสีเหลืองและสีแดงบนแผนที่.

เลื่อนเมาส์ไปเหนือจุดเพื่อดูชื่อสถานี.

แล้วคลิกเพื่อดูสังเกตการณ์และการพยากรณ์สภาพอากาศ.

ในการเปลี่ยนแผนที่: คลิกที่ปุ่มสีเขียวที่มีกากบาทสีดำเพื่อซูมเข้า; ที่ปุ่มสีเขียวที่มีขีดเพื่อซูมออก; หรือที่ลูกศรสีเขียวเพื่อไปยังแผนที่ที่อยู่ติดกัน.


METAR-TAF: